sensor_id;sensor_type;location;lat;lon;timestamp;pressure;altitude;pressure_sealevel;temperature;humidity
47220;BME280;32961;51.936;4.788;2023-05-13T00:00:22;102108.28;;;14.77;98.37
47220;BME280;32961;51.936;4.788;2023-05-13T00:02:50;102103.81;;;14.76;98.27
47220;BME280;32961;51.936;4.788;2023-05-13T00:05:18;102104.84;;;14.75;98.37
47220;BME280;32961;51.936;4.788;2023-05-13T00:07:46;102113.78;;;14.77;98.36
47220;BME280;32961;51.936;4.788;2023-05-13T00:10:15;102097.91;;;14.71;98.37
47220;BME280;32961;51.936;4.788;2023-05-13T00:12:43;102108.59;;;14.74;98.09
47220;BME280;32961;51.936;4.788;2023-05-13T00:15:11;102111.34;;;14.74;98.13
47220;BME280;32961;51.936;4.788;2023-05-13T00:17:39;102108.88;;;14.71;97.73
47220;BME280;32961;51.936;4.788;2023-05-13T00:20:07;102110.88;;;14.69;97.95
47220;BME280;32961;51.936;4.788;2023-05-13T00:22:35;102113.75;;;14.67;98.02
47220;BME280;32961;51.936;4.788;2023-05-13T00:25:03;102114.63;;;14.68;97.64
47220;BME280;32961;51.936;4.788;2023-05-13T00:27:33;102114.13;;;14.63;97.24
47220;BME280;32961;51.936;4.788;2023-05-13T00:30:01;102110.97;;;14.57;97.18
47220;BME280;32961;51.936;4.788;2023-05-13T00:32:31;102112.25;;;14.53;96.80
47220;BME280;32961;51.936;4.788;2023-05-13T00:34:58;102107.34;;;14.47;96.78
47220;BME280;32961;51.936;4.788;2023-05-13T00:37:26;102119.13;;;14.48;96.35
47220;BME280;32961;51.936;4.788;2023-05-13T00:39:54;102108.50;;;14.44;95.47
47220;BME280;32961;51.936;4.788;2023-05-13T00:42:22;102104.69;;;14.36;95.09
47220;BME280;32961;51.936;4.788;2023-05-13T00:44:51;102111.91;;;14.37;94.88
47220;BME280;32961;51.936;4.788;2023-05-13T00:47:20;102112.19;;;14.34;94.12
47220;BME280;32961;51.936;4.788;2023-05-13T00:49:48;102116.19;;;14.29;93.59
47220;BME280;32961;51.936;4.788;2023-05-13T00:52:16;102114.47;;;14.28;92.89
47220;BME280;32961;51.936;4.788;2023-05-13T00:54:44;102115.34;;;14.29;92.57
47220;BME280;32961;51.936;4.788;2023-05-13T00:57:12;102105.53;;;14.26;92.40
47220;BME280;32961;51.936;4.788;2023-05-13T00:59:41;102103.81;;;14.25;92.38
47220;BME280;32961;51.936;4.788;2023-05-13T01:02:27;102109.13;;;14.27;91.94
47220;BME280;32961;51.936;4.788;2023-05-13T01:05:03;102110.28;;;14.24;91.50
47220;BME280;32961;51.936;4.788;2023-05-13T01:07:42;102105.81;;;14.23;91.26
47220;BME280;32961;51.936;4.788;2023-05-13T01:10:17;102109.38;;;14.14;90.52
47220;BME280;32961;51.936;4.788;2023-05-13T01:12:51;102098.25;;;14.06;90.95
47220;BME280;32961;51.936;4.788;2023-05-13T01:15:23;102105.75;;;14.13;90.58
47220;BME280;32961;51.936;4.788;2023-05-13T01:17:55;102095.53;;;14.06;90.77
47220;BME280;32961;51.936;4.788;2023-05-13T01:20:26;102101.28;;;14.03;90.50
47220;BME280;32961;51.936;4.788;2023-05-13T01:22:55;102107.75;;;14.02;90.30
47220;BME280;32961;51.936;4.788;2023-05-13T01:25:23;102100.53;;;14.01;90.32
47220;BME280;32961;51.936;4.788;2023-05-13T01:27:51;102105.13;;;14.00;90.44
47220;BME280;32961;51.936;4.788;2023-05-13T01:30:20;102099.50;;;13.92;90.17
47220;BME280;32961;51.936;4.788;2023-05-13T01:32:49;102108.41;;;13.94;89.58
47220;BME280;32961;51.936;4.788;2023-05-13T01:35:18;102098.03;;;13.88;88.88
47220;BME280;32961;51.936;4.788;2023-05-13T01:37:48;102106.50;;;13.85;88.20
47220;BME280;32961;51.936;4.788;2023-05-13T01:40:18;102111.50;;;13.79;86.98
47220;BME280;32961;51.936;4.788;2023-05-13T01:42:58;102110.56;;;13.69;85.68
47220;BME280;32961;51.936;4.788;2023-05-13T01:45:26;102106.09;;;13.68;85.63
47220;BME280;32961;51.936;4.788;2023-05-13T01:47:55;102106.09;;;13.68;84.84
47220;BME280;32961;51.936;4.788;2023-05-13T01:50:23;102101.78;;;13.66;84.11
47220;BME280;32961;51.936;4.788;2023-05-13T01:52:51;102107.63;;;13.61;84.17
47220;BME280;32961;51.936;4.788;2023-05-13T01:55:20;102103.44;;;13.57;83.81
47220;BME280;32961;51.936;4.788;2023-05-13T01:57:48;102099.13;;;13.54;83.43
47220;BME280;32961;51.936;4.788;2023-05-13T02:00:16;102104.84;;;13.51;83.17
47220;BME280;32961;51.936;4.788;2023-05-13T02:02:45;102098.66;;;13.49;83.61
47220;BME280;32961;51.936;4.788;2023-05-13T02:05:13;102097.78;;;13.48;83.87
47220;BME280;32961;51.936;4.788;2023-05-13T02:07:42;102094.13;;;13.38;83.89
47220;BME280;32961;51.936;4.788;2023-05-13T02:10:10;102100.53;;;13.37;84.30
47220;BME280;32961;51.936;4.788;2023-05-13T02:12:39;102099.59;;;13.38;84.89
47220;BME280;32961;51.936;4.788;2023-05-13T02:15:08;102103.56;;;13.34;85.43
47220;BME280;32961;51.936;4.788;2023-05-13T02:17:36;102099.47;;;13.28;85.71
47220;BME280;32961;51.936;4.788;2023-05-13T02:20:05;102106.69;;;13.29;86.56
47220;BME280;32961;51.936;4.788;2023-05-13T02:22:33;102091.06;;;13.20;87.21
47220;BME280;32961;51.936;4.788;2023-05-13T02:25:02;102100.53;;;13.16;87.92
47220;BME280;32961;51.936;4.788;2023-05-13T02:27:30;102108.84;;;13.14;87.95
47220;BME280;32961;51.936;4.788;2023-05-13T02:29:59;102104.03;;;13.07;88.53
47220;BME280;32961;51.936;4.788;2023-05-13T02:32:27;102116.06;;;13.04;89.39
47220;BME280;32961;51.936;4.788;2023-05-13T02:34:55;102101.22;;;12.97;89.83
47220;BME280;32961;51.936;4.788;2023-05-13T02:37:23;102100.28;;;12.87;90.21
47220;BME280;32961;51.936;4.788;2023-05-13T02:39:50;102098.41;;;12.87;90.19
47220;BME280;32961;51.936;4.788;2023-05-13T02:42:18;102095.31;;;12.80;90.39
47220;BME280;32961;51.936;4.788;2023-05-13T02:44:46;102098.16;;;12.79;90.97
47220;BME280;32961;51.936;4.788;2023-05-13T02:47:16;102094.34;;;12.81;90.33
47220;BME280;32961;51.936;4.788;2023-05-13T02:49:44;102099.56;;;12.73;90.30
47220;BME280;32961;51.936;4.788;2023-05-13T02:52:11;102100.69;;;12.71;90.62
47220;BME280;32961;51.936;4.788;2023-05-13T02:54:39;102099.19;;;12.66;90.33
47220;BME280;32961;51.936;4.788;2023-05-13T02:57:07;102106.50;;;12.66;90.00
47220;BME280;32961;51.936;4.788;2023-05-13T02:59:35;102105.16;;;12.60;89.96
47220;BME280;32961;51.936;4.788;2023-05-13T03:02:03;102100.47;;;12.51;89.77
47220;BME280;32961;51.936;4.788;2023-05-13T03:04:32;102094.41;;;12.47;90.09
47220;BME280;32961;51.936;4.788;2023-05-13T03:07:00;102102.44;;;12.49;89.51
47220;BME280;32961;51.936;4.788;2023-05-13T03:09:27;102097.75;;;12.51;89.57
47220;BME280;32961;51.936;4.788;2023-05-13T03:11:57;102102.97;;;12.43;88.88
47220;BME280;32961;51.936;4.788;2023-05-13T03:14:24;102109.16;;;12.33;88.64
47220;BME280;32961;51.936;4.788;2023-05-13T03:16:52;102106.44;;;12.33;89.02
47220;BME280;32961;51.936;4.788;2023-05-13T03:19:20;102111.88;;;12.33;89.04
47220;BME280;32961;51.936;4.788;2023-05-13T03:21:49;102112.66;;;12.24;88.68
47220;BME280;32961;51.936;4.788;2023-05-13T03:24:17;102107.19;;;12.24;89.21
47220;BME280;32961;51.936;4.788;2023-05-13T03:26:45;102107.69;;;12.18;88.15
47220;BME280;32961;51.936;4.788;2023-05-13T03:29:13;102108.69;;;12.17;89.31
47220;BME280;32961;51.936;4.788;2023-05-13T03:31:40;102114.34;;;12.14;88.89
47220;BME280;32961;51.936;4.788;2023-05-13T03:34:08;102125.25;;;12.14;88.13
47220;BME280;32961;51.936;4.788;2023-05-13T03:36:36;102127.75;;;12.06;88.75
47220;BME280;32961;51.936;4.788;2023-05-13T03:39:05;102128.88;;;12.03;89.05
47220;BME280;32961;51.936;4.788;2023-05-13T03:41:33;102128.25;;;11.99;89.13
47220;BME280;32961;51.936;4.788;2023-05-13T03:44:01;102129.72;;;12.03;89.13
47220;BME280;32961;51.936;4.788;2023-05-13T03:46:29;102136.41;;;11.99;88.88
47220;BME280;32961;51.936;4.788;2023-05-13T03:48:57;102134.16;;;11.93;89.37
47220;BME280;32961;51.936;4.788;2023-05-13T03:51:25;102135.44;;;12.00;88.79
47220;BME280;32961;51.936;4.788;2023-05-13T03:53:53;102128.34;;;11.98;88.97
47220;BME280;32961;51.936;4.788;2023-05-13T03:56:22;102130.09;;;11.99;88.65
47220;BME280;32961;51.936;4.788;2023-05-13T03:58:50;102141.97;;;11.98;88.26
47220;BME280;32961;51.936;4.788;2023-05-13T04:01:18;102131.44;;;11.93;88.27
47220;BME280;32961;51.936;4.788;2023-05-13T04:03:46;102136.13;;;11.91;88.91
47220;BME280;32961;51.936;4.788;2023-05-13T04:06:15;102134.25;;;11.92;89.08
47220;BME280;32961;51.936;4.788;2023-05-13T04:08:43;102137.38;;;11.87;89.16
47220;BME280;32961;51.936;4.788;2023-05-13T04:11:12;102134.38;;;11.90;89.52
47220;BME280;32961;51.936;4.788;2023-05-13T04:13:41;102135.13;;;11.81;89.24
47220;BME280;32961;51.936;4.788;2023-05-13T04:16:11;102146.13;;;11.79;89.96
47220;BME280;32961;51.936;4.788;2023-05-13T04:18:39;102137.09;;;11.79;90.37
47220;BME280;32961;51.936;4.788;2023-05-13T04:21:11;102137.56;;;11.72;90.36
47220;BME280;32961;51.936;4.788;2023-05-13T04:23:38;102142.53;;;11.79;90.66
47220;BME280;32961;51.936;4.788;2023-05-13T04:26:07;102142.53;;;11.79;90.93
47220;BME280;32961;51.936;4.788;2023-05-13T04:28:35;102145.13;;;11.80;90.51
47220;BME280;32961;51.936;4.788;2023-05-13T04:31:04;102140.94;;;11.76;90.81
47220;BME280;32961;51.936;4.788;2023-05-13T04:33:32;102142.03;;;11.74;91.25
47220;BME280;32961;51.936;4.788;2023-05-13T04:36:00;102146.72;;;11.71;91.55
47220;BME280;32961;51.936;4.788;2023-05-13T04:38:27;102142.13;;;11.61;92.17
47220;BME280;32961;51.936;4.788;2023-05-13T04:40:55;102138.91;;;11.67;92.09
47220;BME280;32961;51.936;4.788;2023-05-13T04:43:23;102137.31;;;11.64;92.50
47220;BME280;32961;51.936;4.788;2023-05-13T04:45:51;102148.81;;;11.68;92.42
47220;BME280;32961;51.936;4.788;2023-05-13T04:48:20;102150.56;;;11.69;92.83
47220;BME280;32961;51.936;4.788;2023-05-13T04:50:49;102151.91;;;11.75;93.05
47220;BME280;32961;51.936;4.788;2023-05-13T04:53:18;102155.53;;;11.75;93.32
47220;BME280;32961;51.936;4.788;2023-05-13T04:55:47;102155.91;;;11.82;92.85
47220;BME280;32961;51.936;4.788;2023-05-13T04:58:16;102157.41;;;11.86;92.98
47220;BME280;32961;51.936;4.788;2023-05-13T05:00:46;102160.97;;;11.86;92.96
47220;BME280;32961;51.936;4.788;2023-05-13T05:03:14;102171.75;;;11.88;93.01
47220;BME280;32961;51.936;4.788;2023-05-13T05:05:43;102166.31;;;11.88;93.48
47220;BME280;32961;51.936;4.788;2023-05-13T05:08:11;102165.09;;;11.92;93.69
47220;BME280;32961;51.936;4.788;2023-05-13T05:10:39;102156.16;;;11.90;93.59
47220;BME280;32961;51.936;4.788;2023-05-13T05:13:07;102157.31;;;11.99;93.49
47220;BME280;32961;51.936;4.788;2023-05-13T05:15:35;102166.25;;;12.01;93.73
47220;BME280;32961;51.936;4.788;2023-05-13T05:18:03;102167.72;;;12.05;93.69
47220;BME280;32961;51.936;4.788;2023-05-13T05:20:32;102157.81;;;12.04;93.01
47220;BME280;32961;51.936;4.788;2023-05-13T05:23:01;102161.28;;;12.06;93.55
47220;BME280;32961;51.936;4.788;2023-05-13T05:25:29;102159.31;;;12.08;94.05
47220;BME280;32961;51.936;4.788;2023-05-13T05:27:57;102161.44;;;12.16;93.95
47220;BME280;32961;51.936;4.788;2023-05-13T05:30:25;102157.94;;;12.14;93.98
47220;BME280;32961;51.936;4.788;2023-05-13T05:32:53;102168.88;;;12.25;93.73
47220;BME280;32961;51.936;4.788;2023-05-13T05:35:20;102165.16;;;12.26;94.17
47220;BME280;32961;51.936;4.788;2023-05-13T05:37:48;102164.16;;;12.27;94.88
47220;BME280;32961;51.936;4.788;2023-05-13T05:40:18;102160.84;;;12.35;94.67
47220;BME280;32961;51.936;4.788;2023-05-13T05:42:47;102167.03;;;12.48;94.54
47220;BME280;32961;51.936;4.788;2023-05-13T05:45:15;102168.13;;;12.57;94.07
47220;BME280;32961;51.936;4.788;2023-05-13T05:47:42;102166.00;;;12.72;93.70
47220;BME280;32961;51.936;4.788;2023-05-13T05:50:11;102167.59;;;12.75;94.29
47220;BME280;32961;51.936;4.788;2023-05-13T05:52:39;102169.59;;;12.84;93.74
47220;BME280;32961;51.936;4.788;2023-05-13T05:55:09;102178.72;;;12.94;94.11
47220;BME280;32961;51.936;4.788;2023-05-13T05:57:38;102176.47;;;12.99;93.99
47220;BME280;32961;51.936;4.788;2023-05-13T06:00:08;102175.25;;;13.04;94.14
47220;BME280;32961;51.936;4.788;2023-05-13T06:02:36;102174.25;;;13.05;94.37
47220;BME280;32961;51.936;4.788;2023-05-13T06:05:05;102178.41;;;13.20;94.52
47220;BME280;32961;51.936;4.788;2023-05-13T06:07:33;102172.69;;;13.23;94.17
47220;BME280;32961;51.936;4.788;2023-05-13T06:10:01;102165.22;;;13.25;94.04
47220;BME280;32961;51.936;4.788;2023-05-13T06:12:32;102176.03;;;13.38;94.41
47220;BME280;32961;51.936;4.788;2023-05-13T06:15:01;102180.97;;;13.44;94.25
47220;BME280;32961;51.936;4.788;2023-05-13T06:17:32;102171.84;;;13.55;93.88
47220;BME280;32961;51.936;4.788;2023-05-13T06:19:59;102175.50;;;13.66;93.29
47220;BME280;32961;51.936;4.788;2023-05-13T06:22:27;102173.13;;;13.72;93.29
47220;BME280;32961;51.936;4.788;2023-05-13T06:24:55;102177.47;;;13.75;92.65
47220;BME280;32961;51.936;4.788;2023-05-13T06:27:23;102178.97;;;13.89;92.74
47220;BME280;32961;51.936;4.788;2023-05-13T06:29:51;102175.06;;;14.03;93.02
47220;BME280;32961;51.936;4.788;2023-05-13T06:32:20;102177.38;;;14.07;91.85
47220;BME280;32961;51.936;4.788;2023-05-13T06:34:48;102183.34;;;14.22;92.69
47220;BME280;32961;51.936;4.788;2023-05-13T06:37:21;102173.19;;;14.34;92.15
47220;BME280;32961;51.936;4.788;2023-05-13T06:39:49;102177.34;;;14.59;91.60
47220;BME280;32961;51.936;4.788;2023-05-13T06:42:16;102174.59;;;14.59;89.94
47220;BME280;32961;51.936;4.788;2023-05-13T06:44:44;102170.19;;;14.68;89.91
47220;BME280;32961;51.936;4.788;2023-05-13T06:47:12;102173.53;;;14.82;89.37
47220;BME280;32961;51.936;4.788;2023-05-13T06:49:43;102176.31;;;15.01;89.25
47220;BME280;32961;51.936;4.788;2023-05-13T06:52:11;102171.88;;;15.10;87.78
47220;BME280;32961;51.936;4.788;2023-05-13T06:54:38;102171.63;;;15.23;84.93
47220;BME280;32961;51.936;4.788;2023-05-13T06:57:06;102178.38;;;15.38;83.63
47220;BME280;32961;51.936;4.788;2023-05-13T06:59:34;102176.66;;;15.47;82.96
47220;BME280;32961;51.936;4.788;2023-05-13T07:02:02;102176.63;;;15.57;82.86
47220;BME280;32961;51.936;4.788;2023-05-13T07:04:30;102177.09;;;15.62;82.48
47220;BME280;32961;51.936;4.788;2023-05-13T07:06:59;102176.94;;;15.73;82.40
47220;BME280;32961;51.936;4.788;2023-05-13T07:09:27;102173.44;;;15.81;83.08
47220;BME280;32961;51.936;4.788;2023-05-13T07:11:55;102169.28;;;15.77;83.46
47220;BME280;32961;51.936;4.788;2023-05-13T07:14:23;102172.19;;;15.85;84.08
47220;BME280;32961;51.936;4.788;2023-05-13T07:16:51;102170.09;;;16.07;83.81
47220;BME280;32961;51.936;4.788;2023-05-13T07:19:19;102180.59;;;16.22;83.42
47220;BME280;32961;51.936;4.788;2023-05-13T07:21:47;102176.25;;;16.29;79.86
47220;BME280;32961;51.936;4.788;2023-05-13T07:24:16;102165.47;;;16.17;80.06
47220;BME280;32961;51.936;4.788;2023-05-13T07:26:44;102188.81;;;16.31;78.21
47220;BME280;32961;51.936;4.788;2023-05-13T07:29:12;102182.69;;;16.47;77.91
47220;BME280;32961;51.936;4.788;2023-05-13T07:31:39;102173.06;;;16.61;78.31
47220;BME280;32961;51.936;4.788;2023-05-13T07:34:07;102168.25;;;16.73;77.62
47220;BME280;32961;51.936;4.788;2023-05-13T07:36:35;102162.03;;;16.71;77.99
47220;BME280;32961;51.936;4.788;2023-05-13T07:39:03;102175.75;;;16.71;76.20
47220;BME280;32961;51.936;4.788;2023-05-13T07:41:32;102175.88;;;16.79;74.80
47220;BME280;32961;51.936;4.788;2023-05-13T07:44:00;102178.88;;;16.96;74.69
47220;BME280;32961;51.936;4.788;2023-05-13T07:46:28;102174.44;;;17.03;74.60
47220;BME280;32961;51.936;4.788;2023-05-13T07:48:56;102173.59;;;17.03;73.44
47220;BME280;32961;51.936;4.788;2023-05-13T07:51:23;102173.75;;;17.01;71.46
47220;BME280;32961;51.936;4.788;2023-05-13T07:53:51;102171.56;;;17.23;72.67
47220;BME280;32961;51.936;4.788;2023-05-13T07:56:19;102173.56;;;17.30;73.28
47220;BME280;32961;51.936;4.788;2023-05-13T07:58:48;102173.47;;;17.40;72.41
47220;BME280;32961;51.936;4.788;2023-05-13T08:01:16;102169.94;;;17.48;71.47
47220;BME280;32961;51.936;4.788;2023-05-13T08:03:44;102177.28;;;17.65;71.01
47220;BME280;32961;51.936;4.788;2023-05-13T08:06:12;102175.31;;;17.76;71.84
47220;BME280;32961;51.936;4.788;2023-05-13T08:08:40;102177.97;;;17.86;71.74
47220;BME280;32961;51.936;4.788;2023-05-13T08:11:07;102175.22;;;17.86;72.41
47220;BME280;32961;51.936;4.788;2023-05-13T08:13:36;102174.69;;;17.82;70.15
47220;BME280;32961;51.936;4.788;2023-05-13T08:16:05;102178.34;;;17.91;70.34
47220;BME280;32961;51.936;4.788;2023-05-13T08:18:33;102174.34;;;18.03;69.01
47220;BME280;32961;51.936;4.788;2023-05-13T08:21:01;102173.38;;;18.12;67.66
47220;BME280;32961;51.936;4.788;2023-05-13T08:23:29;102171.75;;;18.02;67.76
47220;BME280;32961;51.936;4.788;2023-05-13T08:26:10;102175.78;;;18.16;68.84
47220;BME280;32961;51.936;4.788;2023-05-13T08:28:38;102170.72;;;18.29;69.77
47220;BME280;32961;51.936;4.788;2023-05-13T08:31:10;102179.63;;;18.57;68.50
47220;BME280;32961;51.936;4.788;2023-05-13T08:33:38;102178.81;;;18.65;68.38
47220;BME280;32961;51.936;4.788;2023-05-13T08:36:07;102176.47;;;18.79;68.29
47220;BME280;32961;51.936;4.788;2023-05-13T08:38:35;102172.66;;;18.80;66.43
47220;BME280;32961;51.936;4.788;2023-05-13T08:41:03;102166.66;;;18.84;66.03
47220;BME280;32961;51.936;4.788;2023-05-13T08:43:32;102174.00;;;19.02;66.48
47220;BME280;32961;51.936;4.788;2023-05-13T08:46:01;102174.84;;;19.02;66.24
47220;BME280;32961;51.936;4.788;2023-05-13T08:48:32;102181.03;;;18.96;65.67
47220;BME280;32961;51.936;4.788;2023-05-13T08:51:01;102167.06;;;18.98;67.43
47220;BME280;32961;51.936;4.788;2023-05-13T08:53:29;102185.22;;;19.17;66.28
47220;BME280;32961;51.936;4.788;2023-05-13T08:55:58;102175.91;;;19.10;66.13
47220;BME280;32961;51.936;4.788;2023-05-13T08:58:26;102172.63;;;19.22;64.58
47220;BME280;32961;51.936;4.788;2023-05-13T09:00:54;102179.31;;;19.03;64.46
47220;BME280;32961;51.936;4.788;2023-05-13T09:03:23;102185.88;;;19.19;64.16
47220;BME280;32961;51.936;4.788;2023-05-13T09:05:55;102178.84;;;19.41;65.74
47220;BME280;32961;51.936;4.788;2023-05-13T09:08:23;102181.81;;;19.56;63.07
47220;BME280;32961;51.936;4.788;2023-05-13T09:10:51;102181.28;;;19.69;63.26
47220;BME280;32961;51.936;4.788;2023-05-13T09:13:20;102178.72;;;19.92;61.50
47220;BME280;32961;51.936;4.788;2023-05-13T09:15:49;102174.59;;;19.96;60.55
47220;BME280;32961;51.936;4.788;2023-05-13T09:18:17;102174.56;;;20.13;60.47
47220;BME280;32961;51.936;4.788;2023-05-13T09:20:45;102172.44;;;20.23;60.28
47220;BME280;32961;51.936;4.788;2023-05-13T09:23:14;102178.84;;;20.32;60.17
47220;BME280;32961;51.936;4.788;2023-05-13T09:25:43;102176.78;;;20.26;60.09
47220;BME280;32961;51.936;4.788;2023-05-13T09:28:13;102175.38;;;20.30;61.00
47220;BME280;32961;51.936;4.788;2023-05-13T09:30:41;102178.53;;;20.18;61.44
47220;BME280;32961;51.936;4.788;2023-05-13T09:33:13;102179.75;;;20.08;60.57
47220;BME280;32961;51.936;4.788;2023-05-13T09:35:43;102172.81;;;20.20;59.94
47220;BME280;32961;51.936;4.788;2023-05-13T09:38:12;102176.19;;;20.47;60.68
47220;BME280;32961;51.936;4.788;2023-05-13T09:40:48;102173.25;;;20.48;59.37
47220;BME280;32961;51.936;4.788;2023-05-13T09:43:17;102173.00;;;20.66;60.48
47220;BME280;32961;51.936;4.788;2023-05-13T09:45:45;102181.06;;;20.84;60.13
47220;BME280;32961;51.936;4.788;2023-05-13T09:48:13;102174.41;;;21.02;59.13
47220;BME280;32961;51.936;4.788;2023-05-13T09:50:48;102172.53;;;21.26;59.30
47220;BME280;32961;51.936;4.788;2023-05-13T09:53:17;102173.25;;;20.88;58.09
47220;BME280;32961;51.936;4.788;2023-05-13T09:55:48;102167.88;;;20.95;58.69
47220;BME280;32961;51.936;4.788;2023-05-13T09:58:17;102165.34;;;20.85;57.04
47220;BME280;32961;51.936;4.788;2023-05-13T10:00:46;102176.88;;;20.97;57.37
47220;BME280;32961;51.936;4.788;2023-05-13T10:03:14;102171.59;;;20.79;56.32
47220;BME280;32961;51.936;4.788;2023-05-13T10:05:43;102167.81;;;20.80;56.99
47220;BME280;32961;51.936;4.788;2023-05-13T10:08:12;102171.63;;;20.62;56.55
47220;BME280;32961;51.936;4.788;2023-05-13T10:10:41;102170.69;;;20.87;56.70
47220;BME280;32961;51.936;4.788;2023-05-13T10:13:14;102163.16;;;21.04;56.12
47220;BME280;32961;51.936;4.788;2023-05-13T10:15:48;102170.47;;;20.96;56.12
47220;BME280;32961;51.936;4.788;2023-05-13T10:18:17;102161.41;;;21.11;55.85
47220;BME280;32961;51.936;4.788;2023-05-13T10:20:46;102165.75;;;21.05;56.57
47220;BME280;32961;51.936;4.788;2023-05-13T10:23:19;102157.59;;;21.12;55.67
47220;BME280;32961;51.936;4.788;2023-05-13T10:25:47;102160.22;;;21.28;55.35
47220;BME280;32961;51.936;4.788;2023-05-13T10:28:16;102152.97;;;21.27;53.60
47220;BME280;32961;51.936;4.788;2023-05-13T10:30:44;102145.88;;;21.33;56.18
47220;BME280;32961;51.936;4.788;2023-05-13T10:33:12;102158.47;;;21.36;56.11
47220;BME280;32961;51.936;4.788;2023-05-13T10:35:44;102156.00;;;21.41;54.64
47220;BME280;32961;51.936;4.788;2023-05-13T10:38:26;102155.25;;;21.47;55.35
47220;BME280;32961;51.936;4.788;2023-05-13T10:41:07;102148.81;;;21.55;55.38
47220;BME280;32961;51.936;4.788;2023-05-13T10:43:38;102155.41;;;21.30;52.76
47220;BME280;32961;51.936;4.788;2023-05-13T10:46:10;102156.06;;;21.32;54.50
47220;BME280;32961;51.936;4.788;2023-05-13T10:48:40;102146.00;;;21.40;55.69
47220;BME280;32961;51.936;4.788;2023-05-13T10:51:12;102145.91;;;21.48;54.65
47220;BME280;32961;51.936;4.788;2023-05-13T10:53:45;102153.56;;;21.46;55.63
47220;BME280;32961;51.936;4.788;2023-05-13T10:56:13;102150.97;;;21.21;53.69
47220;BME280;32961;51.936;4.788;2023-05-13T10:58:56;102143.00;;;21.26;55.28
47220;BME280;32961;51.936;4.788;2023-05-13T11:01:26;102148.69;;;21.25;54.90
47220;BME280;32961;51.936;4.788;2023-05-13T11:03:56;102141.63;;;21.22;54.45
47220;BME280;32961;51.936;4.788;2023-05-13T11:06:28;102146.97;;;21.47;54.41
47220;BME280;32961;51.936;4.788;2023-05-13T11:08:56;102146.47;;;21.43;53.71
47220;BME280;32961;51.936;4.788;2023-05-13T11:11:28;102147.41;;;21.59;53.28
47220;BME280;32961;51.936;4.788;2023-05-13T11:14:05;102138.66;;;21.47;54.93
47220;BME280;32961;51.936;4.788;2023-05-13T11:16:35;102147.34;;;21.67;54.12
47220;BME280;32961;51.936;4.788;2023-05-13T11:19:08;102145.06;;;21.71;53.55
47220;BME280;32961;51.936;4.788;2023-05-13T11:21:36;102145.72;;;21.73;54.08
47220;BME280;32961;51.936;4.788;2023-05-13T11:24:06;102137.22;;;21.98;53.44
47220;BME280;32961;51.936;4.788;2023-05-13T11:26:45;102131.41;;;22.07;52.78
47220;BME280;32961;51.936;4.788;2023-05-13T11:29:14;102125.84;;;22.22;51.95
47220;BME280;32961;51.936;4.788;2023-05-13T11:31:53;102130.44;;;22.15;52.36
47220;BME280;32961;51.936;4.788;2023-05-13T11:34:26;102138.50;;;21.72;53.49
47220;BME280;32961;51.936;4.788;2023-05-13T11:36:58;102130.38;;;21.70;52.67
47220;BME280;32961;51.936;4.788;2023-05-13T11:39:33;102132.00;;;21.64;52.13
47220;BME280;32961;51.936;4.788;2023-05-13T11:42:05;102132.03;;;21.79;52.95
47220;BME280;32961;51.936;4.788;2023-05-13T11:44:36;102125.72;;;21.71;53.26
47220;BME280;32961;51.936;4.788;2023-05-13T11:47:04;102119.84;;;21.89;54.20
47220;BME280;32961;51.936;4.788;2023-05-13T11:49:38;102120.59;;;22.12;54.37
47220;BME280;32961;51.936;4.788;2023-05-13T11:52:08;102120.22;;;22.31;53.86
47220;BME280;32961;51.936;4.788;2023-05-13T11:54:40;102114.72;;;22.46;52.88
47220;BME280;32961;51.936;4.788;2023-05-13T11:57:19;102109.94;;;22.39;52.05
47220;BME280;32961;51.936;4.788;2023-05-13T11:59:55;102114.88;;;21.99;53.37
47220;BME280;32961;51.936;4.788;2023-05-13T12:02:24;102107.31;;;21.78;55.69
47220;BME280;32961;51.936;4.788;2023-05-13T12:04:53;102118.00;;;21.96;56.03
47220;BME280;32961;51.936;4.788;2023-05-13T12:07:22;102115.75;;;21.61;55.84
47220;BME280;32961;51.936;4.788;2023-05-13T12:09:51;102116.28;;;21.80;56.34
47220;BME280;32961;51.936;4.788;2023-05-13T12:12:19;102111.88;;;21.71;57.34
47220;BME280;32961;51.936;4.788;2023-05-13T12:14:48;102106.00;;;22.04;55.13
47220;BME280;32961;51.936;4.788;2023-05-13T12:17:19;102108.66;;;22.12;55.14
47220;BME280;32961;51.936;4.788;2023-05-13T12:20:07;102101.50;;;22.18;55.20
47220;BME280;32961;51.936;4.788;2023-05-13T12:22:36;102110.88;;;22.02;55.33
47220;BME280;32961;51.936;4.788;2023-05-13T12:25:31;102109.91;;;21.94;54.28
47220;BME280;32961;51.936;4.788;2023-05-13T12:28:05;102110.25;;;21.76;54.29
47220;BME280;32961;51.936;4.788;2023-05-13T12:30:33;102101.81;;;21.55;55.41
47220;BME280;32961;51.936;4.788;2023-05-13T12:33:02;102104.28;;;21.88;55.03
47220;BME280;32961;51.936;4.788;2023-05-13T12:35:31;102102.16;;;21.75;55.93
47220;BME280;32961;51.936;4.788;2023-05-13T12:38:01;102100.75;;;21.79;54.46
47220;BME280;32961;51.936;4.788;2023-05-13T12:40:30;102105.13;;;21.88;56.60
47220;BME280;32961;51.936;4.788;2023-05-13T12:42:58;102114.69;;;22.01;55.40
47220;BME280;32961;51.936;4.788;2023-05-13T12:45:27;102108.66;;;21.97;55.17
47220;BME280;32961;51.936;4.788;2023-05-13T12:47:56;102095.25;;;21.56;56.28
47220;BME280;32961;51.936;4.788;2023-05-13T12:50:26;102111.19;;;21.69;56.66
47220;BME280;32961;51.936;4.788;2023-05-13T12:52:53;102091.84;;;21.84;56.04
47220;BME280;32961;51.936;4.788;2023-05-13T12:55:23;102098.16;;;21.54;57.51
47220;BME280;32961;51.936;4.788;2023-05-13T12:57:57;102092.03;;;21.67;57.41
47220;BME280;32961;51.936;4.788;2023-05-13T13:00:26;102101.31;;;21.74;57.87